Time;durP1;ratioP1;P1;durP2;ratioP2;P2;SDS_P1;SDS_P2;PMS_P1;PMS_P2;Temp;Humidity;BMP_temperature;BMP_pressure;BME280_temperature;BME280_humidity;BME280_pressure;Samples;Min_cycle;Max_cycle;Signal;HPM_P1;HPM_P2
2024/03/03 00:01:56;;;;;;;1.17;0.68;;;14.00;61.80;;;;;;5024478;28;20038;-60
2024/03/03 00:04:22;;;;;;;1.63;0.85;;;14.00;61.90;;;;;;5036296;28;20091;-60
2024/03/03 00:06:48;;;;;;;1.35;0.82;;;14.00;62.10;;;;;;5032093;28;20029;-61
2024/03/03 00:09:14;;;;;;;0.85;0.75;;;13.90;62.00;;;;;;5036161;28;20033;-60
2024/03/03 00:11:40;;;;;;;0.80;0.80;;;13.90;62.00;;;;;;5031366;28;20041;-61
2024/03/03 00:14:06;;;;;;;1.58;0.80;;;13.90;62.20;;;;;;5025680;28;20034;-60
2024/03/03 00:16:32;;;;;;;2.15;1.00;;;13.90;62.30;;;;;;5038540;28;20400;-60
2024/03/03 00:18:59;;;;;;;2.30;1.05;;;13.90;62.40;;;;;;5033622;28;20060;-60
2024/03/03 00:21:26;;;;;;;1.10;0.82;;;13.90;62.40;;;;;;5033338;28;20560;-60
2024/03/03 00:23:52;;;;;;;0.90;0.60;;;13.80;62.40;;;;;;5029032;28;20072;-60
2024/03/03 00:26:18;;;;;;;1.48;1.02;;;13.80;62.50;;;;;;5018106;28;20572;-60
2024/03/03 00:28:44;;;;;;;1.60;0.98;;;13.80;62.60;;;;;;5033388;28;20064;-60
2024/03/03 00:31:09;;;;;;;1.40;1.15;;;13.80;62.80;;;;;;5055418;28;20049;-61
2024/03/03 00:33:35;;;;;;;1.85;1.23;;;13.70;62.80;;;;;;5016789;28;20688;-60
2024/03/03 00:36:05;;;;;;;1.00;0.90;;;13.70;62.90;;;;;;5036926;28;20024;-60
2024/03/03 00:38:34;;;;;;;2.15;1.10;;;13.70;63.10;;;;;;5039635;28;20029;-61
2024/03/03 00:41:00;;;;;;;1.17;1.08;;;13.60;63.20;;;;;;5034194;28;20025;-60
2024/03/03 00:43:27;;;;;;;1.52;0.80;;;13.60;63.30;;;;;;5038872;28;20030;-65
2024/03/03 00:45:52;;;;;;;3.05;1.52;;;13.50;63.40;;;;;;5029417;28;20041;-61
2024/03/03 00:48:18;;;;;;;0.77;0.77;;;13.50;63.60;;;;;;5028764;28;20021;-65
2024/03/03 00:50:44;;;;;;;1.73;1.13;;;13.40;63.80;;;;;;5030682;28;20029;-65
2024/03/03 00:53:10;;;;;;;2.67;1.08;;;13.30;63.90;;;;;;5030021;28;20110;-65
2024/03/03 00:55:36;;;;;;;3.55;1.35;;;13.30;64.10;;;;;;5028281;28;20257;-65
2024/03/03 00:58:02;;;;;;;1.40;1.00;;;13.20;64.20;;;;;;5029482;28;20025;-65
2024/03/03 01:00:28;;;;;;;1.95;1.25;;;13.20;64.30;;;;;;5029685;28;20550;-65
2024/03/03 01:02:54;;;;;;;1.42;0.88;;;13.20;64.30;;;;;;5028852;28;20091;-66
2024/03/03 01:05:20;;;;;;;1.40;1.08;;;13.20;64.40;;;;;;5033137;28;20116;-65
2024/03/03 01:07:46;;;;;;;1.63;1.08;;;13.10;64.40;;;;;;5029798;28;20041;-65
2024/03/03 01:10:12;;;;;;;1.73;1.15;;;13.10;64.50;;;;;;5029560;28;20167;-65
2024/03/03 01:12:38;;;;;;;1.95;1.17;;;13.10;64.60;;;;;;5029826;28;20608;-65
2024/03/03 01:15:05;;;;;;;2.78;1.17;;;13.10;64.60;;;;;;5060439;28;20473;-66
2024/03/03 01:17:30;;;;;;;2.72;1.30;;;13.10;64.80;;;;;;5032997;28;20037;-66
2024/03/03 01:19:56;;;;;;;1.27;1.10;;;13.10;64.90;;;;;;5028736;28;20018;-65
2024/03/03 01:22:22;;;;;;;2.65;1.13;;;13.10;64.90;;;;;;5031710;28;20029;-65
2024/03/03 01:24:48;;;;;;;1.20;0.90;;;13.10;65.00;;;;;;5029725;28;20026;-65
2024/03/03 01:27:15;;;;;;;1.30;0.98;;;13.10;65.10;;;;;;5030165;28;20108;-65
2024/03/03 01:29:41;;;;;;;3.63;1.83;;;13.10;65.30;;;;;;5031409;28;20593;-65
2024/03/03 01:32:08;;;;;;;1.08;0.90;;;13.10;65.30;;;;;;5028754;28;20122;-65
2024/03/03 01:34:35;;;;;;;2.78;1.70;;;13.10;65.30;;;;;;5028008;28;20029;-65
2024/03/03 01:37:00;;;;;;;2.15;1.05;;;13.10;65.40;;;;;;5028985;28;20488;-65
2024/03/03 01:39:26;;;;;;;1.67;0.90;;;13.10;65.40;;;;;;5028285;28;20041;-65
2024/03/03 01:41:52;;;;;;;3.58;1.38;;;13.20;65.50;;;;;;5032012;28;20038;-65
2024/03/03 01:44:18;;;;;;;2.22;1.42;;;13.20;65.50;;;;;;5032481;28;20431;-65
2024/03/03 01:46:44;;;;;;;2.08;1.67;;;13.10;65.60;;;;;;5033765;28;20116;-65
2024/03/03 01:49:13;;;;;;;2.20;1.40;;;13.20;65.70;;;;;;5025843;28;20481;-65
2024/03/03 01:51:40;;;;;;;1.55;1.20;;;13.10;65.70;;;;;;5035101;28;20404;-65
2024/03/03 01:54:07;;;;;;;1.33;0.77;;;13.20;65.80;;;;;;5028527;28;20045;-60
2024/03/03 01:56:35;;;;;;;1.88;1.08;;;13.20;65.80;;;;;;5029194;28;20022;-61
2024/03/03 01:59:02;;;;;;;2.20;1.42;;;13.20;65.80;;;;;;5028592;28;20021;-60
2024/03/03 02:01:31;;;;;;;2.42;1.52;;;13.10;65.80;;;;;;5031910;28;20040;-60
2024/03/03 02:03:58;;;;;;;2.85;1.40;;;13.10;65.90;;;;;;5029910;28;20133;-61
2024/03/03 02:06:30;;;;;;;2.70;1.13;;;13.10;66.00;;;;;;5028020;28;20052;-60
2024/03/03 02:08:57;;;;;;;;;;;13.00;66.00;;;;;;5037163;28;20500;-60
2024/03/03 02:11:23;;;;;;;1.92;1.02;;;12.90;66.10;;;;;;5035781;28;19963;-60
2024/03/03 02:13:49;;;;;;;1.60;1.25;;;12.90;66.20;;;;;;5028200;28;20041;-65
2024/03/03 02:16:15;;;;;;;3.53;1.58;;;12.90;66.20;;;;;;5028499;28;20080;-66
2024/03/03 02:18:41;;;;;;;2.65;1.38;;;12.80;66.20;;;;;;5028912;28;20017;-65
2024/03/03 02:21:07;;;;;;;2.78;1.63;;;12.80;66.30;;;;;;5032977;28;20033;-66
2024/03/03 02:23:33;;;;;;;2.97;1.70;;;12.80;66.40;;;;;;5030176;28;20029;-65
2024/03/03 02:25:59;;;;;;;1.35;1.20;;;12.80;66.50;;;;;;5032583;28;20030;-65
2024/03/03 02:28:27;;;;;;;1.58;1.00;;;12.80;66.50;;;;;;5032720;28;20053;-65
2024/03/03 02:30:52;;;;;;;1.60;1.00;;;12.80;66.60;;;;;;5032870;28;20049;-65
2024/03/03 02:33:19;;;;;;;2.38;1.25;;;12.70;66.60;;;;;;5033565;28;20025;-65
2024/03/03 02:35:45;;;;;;;1.73;1.30;;;12.70;66.70;;;;;;5032896;28;20120;-65
2024/03/03 02:38:11;;;;;;;1.50;1.20;;;12.70;66.80;;;;;;5033876;28;20029;-65
2024/03/03 02:40:37;;;;;;;2.42;1.40;;;12.60;66.80;;;;;;5032931;28;20082;-65
2024/03/03 02:43:03;;;;;;;2.17;1.17;;;12.60;66.80;;;;;;5031817;28;20021;-65
2024/03/03 02:45:29;;;;;;;2.13;1.58;;;12.50;66.90;;;;;;5032093;28;20491;-65
2024/03/03 02:47:57;;;;;;;2.80;1.67;;;12.50;67.00;;;;;;5032082;28;20029;-65
2024/03/03 02:50:23;;;;;;;2.20;1.50;;;12.50;67.00;;;;;;5035468;28;20091;-65
2024/03/03 02:52:50;;;;;;;1.60;1.00;;;12.40;67.10;;;;;;5035493;28;20041;-65
2024/03/03 02:55:15;;;;;;;2.00;1.13;;;12.40;67.10;;;;;;5027393;28;20037;-65
2024/03/03 02:57:41;;;;;;;2.20;1.48;;;12.40;67.20;;;;;;5027463;28;20025;-65
2024/03/03 03:00:11;;;;;;;2.05;1.60;;;12.30;67.20;;;;;;5031680;28;20022;-65
2024/03/03 03:02:37;;;;;;;2.63;1.55;;;12.20;67.40;;;;;;5024554;28;20475;-65
2024/03/03 03:05:03;;;;;;;1.52;1.10;;;12.20;67.50;;;;;;5036078;28;20118;-65
2024/03/03 03:07:29;;;;;;;1.45;1.05;;;12.20;67.60;;;;;;5032713;28;20631;-65
2024/03/03 03:09:55;;;;;;;2.00;1.60;;;12.10;67.60;;;;;;5031976;28;20120;-65
2024/03/03 03:12:21;;;;;;;1.63;1.20;;;12.10;67.70;;;;;;5033150;28;20480;-65
2024/03/03 03:14:47;;;;;;;2.00;1.35;;;12.00;67.70;;;;;;5032404;28;20029;-65
2024/03/03 03:17:13;;;;;;;2.42;1.30;;;12.00;67.70;;;;;;5034972;28;20024;-65
2024/03/03 03:19:39;;;;;;;1.35;1.08;;;11.90;67.80;;;;;;5030653;28;20021;-65
2024/03/03 03:22:06;;;;;;;2.50;1.80;;;11.90;67.80;;;;;;5031800;28;20469;-65
2024/03/03 03:24:32;;;;;;;3.03;1.73;;;11.80;67.90;;;;;;5031359;28;20033;-65
2024/03/03 03:26:58;;;;;;;2.58;1.40;;;11.80;68.00;;;;;;5027213;28;20542;-65
2024/03/03 03:29:24;;;;;;;2.33;1.55;;;11.80;68.00;;;;;;5031833;28;20034;-65
2024/03/03 03:31:50;;;;;;;1.63;1.23;;;11.70;68.00;;;;;;5031353;28;20794;-65
2024/03/03 03:34:16;;;;;;;1.52;1.20;;;11.70;68.00;;;;;;5036189;28;20032;-65
2024/03/03 03:36:42;;;;;;;1.80;1.08;;;11.70;68.00;;;;;;5031800;28;20025;-65
2024/03/03 03:39:12;;;;;;;2.00;1.42;;;11.60;68.10;;;;;;5032825;28;20044;-65
2024/03/03 03:41:49;;;;;;;1.40;0.98;;;11.60;68.10;;;;;;5031158;28;20040;-65
2024/03/03 03:44:16;;;;;;;2.38;1.40;;;11.60;68.10;;;;;;5032709;28;20033;-65
2024/03/03 03:46:42;;;;;;;2.35;1.42;;;11.50;68.20;;;;;;5031059;28;20017;-65
2024/03/03 03:49:13;;;;;;;1.85;1.35;;;11.50;68.20;;;;;;5039668;28;20047;-65
2024/03/03 03:51:39;;;;;;;3.42;1.20;;;11.40;68.30;;;;;;5028157;28;20033;-65
2024/03/03 03:54:06;;;;;;;2.10;1.20;;;11.50;68.40;;;;;;5031130;28;20049;-65
2024/03/03 03:56:32;;;;;;;1.95;1.35;;;11.50;68.40;;;;;;5036084;28;20033;-65
2024/03/03 03:58:58;;;;;;;1.83;1.38;;;11.50;68.40;;;;;;5030853;28;20017;-65
2024/03/03 04:01:27;;;;;;;1.70;1.00;;;11.50;68.40;;;;;;5030590;28;20029;-65
2024/03/03 04:03:54;;;;;;;2.53;1.65;;;11.50;68.40;;;;;;5030119;28;20025;-60
2024/03/03 04:06:20;;;;;;;1.42;1.20;;;11.50;68.50;;;;;;5031061;28;20543;-60
2024/03/03 04:08:46;;;;;;;2.03;1.23;;;11.50;68.60;;;;;;5030513;28;20059;-59
2024/03/03 04:11:12;;;;;;;4.05;1.10;;;11.50;68.60;;;;;;5030680;28;20029;-60
2024/03/03 04:13:38;;;;;;;1.73;1.20;;;11.50;68.70;;;;;;5030487;28;20560;-60
2024/03/03 04:16:06;;;;;;;2.17;1.25;;;11.50;68.70;;;;;;5033186;28;20044;-60
2024/03/03 04:18:33;;;;;;;1.83;1.17;;;11.50;68.80;;;;;;5029348;28;20448;-60
2024/03/03 04:20:59;;;;;;;2.47;1.33;;;11.50;68.80;;;;;;5037191;28;20045;-59
2024/03/03 04:23:25;;;;;;;3.15;1.30;;;11.60;69.50;;;;;;5033842;28;20458;-60
2024/03/03 04:25:51;;;;;;;2.78;1.08;;;11.60;68.90;;;;;;5030435;28;20102;-60
2024/03/03 04:28:17;;;;;;;3.45;1.42;;;11.60;68.80;;;;;;5029687;28;20025;-60
2024/03/03 04:30:43;;;;;;;1.45;1.23;;;11.60;68.80;;;;;;5030001;28;20041;-60
2024/03/03 04:33:09;;;;;;;2.15;1.17;;;11.60;68.80;;;;;;5025370;28;20033;-60
2024/03/03 04:35:35;;;;;;;1.77;1.10;;;11.60;68.80;;;;;;5059631;28;20048;-60
2024/03/03 04:38:01;;;;;;;1.88;1.67;;;11.60;68.90;;;;;;5030809;28;20026;-60
2024/03/03 04:40:27;;;;;;;2.55;1.35;;;11.60;69.60;;;;;;5031058;28;20064;-60
2024/03/03 04:42:53;;;;;;;1.85;1.52;;;11.60;69.00;;;;;;5038219;28;20026;-60
2024/03/03 04:45:19;;;;;;;2.20;1.30;;;11.60;69.00;;;;;;5030074;28;20050;-60
2024/03/03 04:47:45;;;;;;;2.65;1.60;;;11.60;69.00;;;;;;5031164;28;20087;-60
2024/03/03 04:50:11;;;;;;;2.25;1.05;;;11.60;69.00;;;;;;5027788;28;20046;-60
2024/03/03 04:52:37;;;;;;;3.35;1.70;;;11.60;69.00;;;;;;5029797;28;20045;-60
2024/03/03 04:55:05;;;;;;;2.88;1.42;;;11.60;69.00;;;;;;5029225;28;20068;-60
2024/03/03 04:57:32;;;;;;;2.92;1.48;;;11.60;69.00;;;;;;5030321;28;20068;-60
2024/03/03 04:59:57;;;;;;;2.28;1.63;;;11.60;69.10;;;;;;5030613;28;20049;-60
2024/03/03 05:02:24;;;;;;;2.20;1.50;;;11.60;69.10;;;;;;5032107;28;20061;-59
2024/03/03 05:04:50;;;;;;;1.50;0.93;;;11.60;69.10;;;;;;5029799;28;20037;-64
2024/03/03 05:07:16;;;;;;;2.28;0.95;;;11.60;69.10;;;;;;5034854;28;20064;-65
2024/03/03 05:09:43;;;;;;;2.35;1.35;;;11.60;69.10;;;;;;5028348;28;20037;-65
2024/03/03 05:12:08;;;;;;;2.05;0.90;;;11.60;69.10;;;;;;5031056;28;20120;-65
2024/03/03 05:14:35;;;;;;;1.05;0.98;;;11.60;69.20;;;;;;5031074;28;20117;-65
2024/03/03 05:17:04;;;;;;;4.15;1.23;;;11.60;69.20;;;;;;5029324;28;20025;-65
2024/03/03 05:19:30;;;;;;;2.22;1.30;;;11.60;69.20;;;;;;5028795;28;20033;-65
2024/03/03 05:21:56;;;;;;;3.13;1.80;;;11.60;69.20;;;;;;5030624;28;20337;-65
2024/03/03 05:24:23;;;;;;;1.52;1.08;;;11.60;69.30;;;;;;5037536;28;20037;-65
2024/03/03 05:26:52;;;;;;;1.70;1.35;;;11.60;69.30;;;;;;5032825;28;20029;-65
2024/03/03 05:29:18;;;;;;;1.52;1.25;;;11.50;69.30;;;;;;5033198;28;20120;-65
2024/03/03 05:31:43;;;;;;;2.65;1.75;;;11.50;69.30;;;;;;5035723;28;20108;-65
2024/03/03 05:34:13;;;;;;;1.50;1.40;;;11.50;69.40;;;;;;5030156;28;20037;-65
2024/03/03 05:36:40;;;;;;;1.70;1.27;;;11.50;69.40;;;;;;5034468;28;20037;-65
2024/03/03 05:39:07;;;;;;;2.65;1.65;;;11.50;69.40;;;;;;5027390;28;20048;-65
2024/03/03 05:41:33;;;;;;;2.30;1.55;;;11.50;69.50;;;;;;5024710;28;20030;-65
2024/03/03 05:43:59;;;;;;;2.53;1.52;;;11.50;69.50;;;;;;5030718;28;20030;-65
2024/03/03 05:46:25;;;;;;;3.65;1.20;;;11.50;69.60;;;;;;5031093;28;20346;-65
2024/03/03 05:48:51;;;;;;;2.83;1.65;;;11.50;69.60;;;;;;5033632;28;20460;-65
2024/03/03 05:51:17;;;;;;;2.00;1.65;;;11.40;69.60;;;;;;5029027;28;20087;-65
2024/03/03 05:53:43;;;;;;;3.78;1.95;;;11.40;69.70;;;;;;5027859;28;20064;-65
2024/03/03 05:56:13;;;;;;;3.03;1.15;;;11.40;69.70;;;;;;5032614;28;20029;-65
2024/03/03 05:58:39;;;;;;;3.60;1.65;;;11.40;69.70;;;;;;5029051;28;20496;-60
2024/03/03 06:01:05;;;;;;;2.60;1.40;;;11.40;69.70;;;;;;5027887;28;20082;-60
2024/03/03 06:03:31;;;;;;;4.00;1.83;;;11.40;69.80;;;;;;5028344;28;20500;-60
2024/03/03 06:05:56;;;;;;;3.60;1.95;;;11.40;69.90;;;;;;5028926;28;20111;-60
2024/03/03 06:08:22;;;;;;;5.80;1.98;;;11.40;69.90;;;;;;5028401;28;20041;-60
2024/03/03 06:10:47;;;;;;;3.55;1.90;;;11.30;69.90;;;;;;5029283;28;20026;-60
2024/03/03 06:13:13;;;;;;;7.22;1.55;;;11.30;70.00;;;;;;5028896;28;20492;-60
2024/03/03 06:15:39;;;;;;;4.32;1.35;;;11.40;70.10;;;;;;5030427;28;20040;-60
2024/03/03 06:18:05;;;;;;;4.20;2.03;;;11.30;70.10;;;;;;5028312;28;20032;-60
2024/03/03 06:20:31;;;;;;;2.15;1.50;;;11.40;70.20;;;;;;5029269;28;20492;-60
2024/03/03 06:22:57;;;;;;;3.33;1.55;;;11.40;70.10;;;;;;5026236;28;20029;-60
2024/03/03 06:25:23;;;;;;;2.30;1.33;;;11.40;70.10;;;;;;5029392;28;20515;-60
2024/03/03 06:27:49;;;;;;;4.18;1.67;;;11.40;70.20;;;;;;5028417;28;20034;-61
2024/03/03 06:30:15;;;;;;;3.95;1.90;;;11.40;70.20;;;;;;5028937;28;20080;-61
2024/03/03 06:32:41;;;;;;;2.35;1.63;;;11.40;70.20;;;;;;5027985;28;20042;-60
2024/03/03 06:35:10;;;;;;;2.78;1.40;;;11.40;70.20;;;;;;5024284;28;20037;-61
2024/03/03 06:37:36;;;;;;;2.58;1.35;;;11.50;70.30;;;;;;5030652;28;20061;-60
2024/03/03 06:40:03;;;;;;;3.05;1.50;;;11.50;70.30;;;;;;5030955;28;20032;-60
2024/03/03 06:42:29;;;;;;;3.08;1.58;;;11.50;70.30;;;;;;5029258;28;20040;-60
2024/03/03 06:44:55;;;;;;;2.42;1.42;;;11.50;70.50;;;;;;5032236;28;20022;-61
2024/03/03 06:47:21;;;;;;;3.30;1.90;;;11.50;70.60;;;;;;5029032;28;20129;-61
2024/03/03 06:49:46;;;;;;;2.65;1.35;;;11.50;70.60;;;;;;5028056;28;20080;-61
2024/03/03 06:52:12;;;;;;;3.85;1.80;;;11.50;70.60;;;;;;5030630;28;20041;-65
2024/03/03 06:54:38;;;;;;;2.60;1.38;;;11.60;70.70;;;;;;5026585;28;20512;-65
2024/03/03 06:57:04;;;;;;;3.08;1.67;;;11.60;70.90;;;;;;5031303;28;20474;-65
2024/03/03 06:59:30;;;;;;;2.15;1.50;;;11.60;70.90;;;;;;5027802;28;20025;-65
2024/03/03 07:01:55;;;;;;;2.35;1.48;;;11.60;71.00;;;;;;5027851;28;20029;-60
2024/03/03 07:04:24;;;;;;;1.92;1.58;;;11.60;71.10;;;;;;5035254;28;20051;-60
2024/03/03 07:06:54;;;;;;;2.50;1.55;;;11.60;71.20;;;;;;5032153;28;20431;-60
2024/03/03 07:09:23;;;;;;;4.80;2.35;;;11.60;71.20;;;;;;5031321;28;20497;-61
2024/03/03 07:11:52;;;;;;;5.82;1.50;;;11.70;71.20;;;;;;5032733;28;20387;-60
2024/03/03 07:14:18;;;;;;;3.03;1.17;;;11.80;71.20;;;;;;5036435;28;20025;-60
2024/03/03 07:16:44;;;;;;;2.08;1.35;;;11.70;71.10;;;;;;5031562;28;20033;-60
2024/03/03 07:19:10;;;;;;;2.80;1.80;;;11.80;71.10;;;;;;5035137;28;20024;-65
2024/03/03 07:21:36;;;;;;;2.28;1.67;;;11.80;71.10;;;;;;5032116;28;20072;-65
2024/03/03 07:24:02;;;;;;;3.67;1.70;;;11.80;71.30;;;;;;5036373;28;20059;-65
2024/03/03 07:26:28;;;;;;;3.17;2.15;;;11.90;71.10;;;;;;5037727;28;20030;-65
2024/03/03 07:28:54;;;;;;;3.60;1.83;;;11.80;71.10;;;;;;5062831;28;20022;-65
2024/03/03 07:31:20;;;;;;;3.60;2.00;;;11.80;71.00;;;;;;5030760;28;20041;-65
2024/03/03 07:33:45;;;;;;;2.50;1.73;;;11.90;71.00;;;;;;5027416;28;20096;-65
2024/03/03 07:36:11;;;;;;;3.40;2.33;;;11.80;71.00;;;;;;5031174;28;20034;-65
2024/03/03 07:38:37;;;;;;;1.77;1.67;;;11.90;71.00;;;;;;5031078;28;20030;-65
2024/03/03 07:41:02;;;;;;;3.13;1.40;;;11.90;71.00;;;;;;5031476;28;20276;-65
2024/03/03 07:43:30;;;;;;;1.77;1.40;;;11.90;71.00;;;;;;5033467;28;20107;-65
2024/03/03 07:45:55;;;;;;;3.78;1.92;;;11.90;70.90;;;;;;5028867;28;20103;-61
2024/03/03 07:48:21;;;;;;;4.68;2.42;;;12.00;70.80;;;;;;5030326;28;20030;-60
2024/03/03 07:50:47;;;;;;;2.08;1.45;;;12.00;70.70;;;;;;5031351;28;21089;-60
2024/03/03 07:53:13;;;;;;;2.25;1.27;;;12.10;70.80;;;;;;5033069;28;20049;-60
2024/03/03 07:55:38;;;;;;;3.75;1.63;;;12.10;70.80;;;;;;5033481;28;20507;-60
2024/03/03 07:58:04;;;;;;;2.53;1.60;;;12.10;70.80;;;;;;5013083;28;20022;-60
2024/03/03 08:00:36;;;;;;;1.90;1.70;;;12.10;70.90;;;;;;5031926;28;20661;-60
2024/03/03 08:03:02;;;;;;;3.28;1.75;;;12.20;70.70;;;;;;5029788;28;20064;-60
2024/03/03 08:05:32;;;;;;;1.52;1.38;;;12.20;70.70;;;;;;5029714;28;20033;-60
2024/03/03 08:07:58;;;;;;;2.35;1.58;;;12.20;70.70;;;;;;5031181;28;20025;-61
2024/03/03 08:10:24;;;;;;;2.60;1.75;;;12.30;70.70;;;;;;5034103;28;20067;-60
2024/03/03 08:12:49;;;;;;;2.83;1.48;;;12.40;70.70;;;;;;5030798;28;20049;-60
2024/03/03 08:15:15;;;;;;;1.70;1.05;;;12.50;70.60;;;;;;5030578;28;20033;-60
2024/03/03 08:17:41;;;;;;;3.25;2.00;;;12.50;70.50;;;;;;5030901;28;20033;-60
2024/03/03 08:20:07;;;;;;;2.70;1.75;;;12.60;70.40;;;;;;5030140;28;20108;-65
2024/03/03 08:22:33;;;;;;;3.70;1.35;;;12.70;70.40;;;;;;5035530;28;20177;-65
2024/03/03 08:24:59;;;;;;;3.45;1.85;;;12.70;70.20;;;;;;5031153;28;20025;-65
2024/03/03 08:27:25;;;;;;;1.85;1.30;;;12.80;70.20;;;;;;5031303;28;20037;-65
2024/03/03 08:29:51;;;;;;;2.40;1.45;;;12.90;70.00;;;;;;5037595;28;20056;-65
2024/03/03 08:32:16;;;;;;;3.40;2.00;;;13.00;70.00;;;;;;5030220;28;20029;-65
2024/03/03 08:34:42;;;;;;;3.90;1.58;;;13.00;69.90;;;;;;5029729;28;20033;-65
2024/03/03 08:37:07;;;;;;;13.55;1.77;;;13.10;69.80;;;;;;5029172;28;20030;-65
2024/03/03 08:39:34;;;;;;;2.47;1.10;;;13.20;69.70;;;;;;5029542;28;20037;-66
2024/03/03 08:42:00;;;;;;;3.72;2.10;;;13.20;69.50;;;;;;5029865;28;20626;-66
2024/03/03 08:44:26;;;;;;;3.20;2.33;;;13.30;69.40;;;;;;5031696;28;20075;-66
2024/03/03 08:46:52;;;;;;;4.50;2.53;;;13.40;69.30;;;;;;5029104;28;20026;-67
2024/03/03 08:49:17;;;;;;;2.92;2.17;;;13.40;69.20;;;;;;5029880;28;20040;-61
2024/03/03 08:51:43;;;;;;;3.15;2.08;;;13.50;69.10;;;;;;5037580;28;20034;-61
2024/03/03 08:54:09;;;;;;;3.03;1.73;;;13.50;69.00;;;;;;5036011;28;20049;-68
2024/03/03 08:56:34;;;;;;;2.00;1.40;;;13.70;68.90;;;;;;5028462;28;20034;-67
2024/03/03 08:59:00;;;;;;;2.28;1.60;;;13.70;68.80;;;;;;5028589;28;20033;-66
2024/03/03 09:01:26;;;;;;;3.67;1.42;;;13.80;68.70;;;;;;5027982;28;20021;-69
2024/03/03 09:03:51;;;;;;;4.60;2.20;;;13.80;68.60;;;;;;5029268;28;20025;-67
2024/03/03 09:06:17;;;;;;;5.10;2.60;;;13.90;68.50;;;;;;5033604;28;20028;-68
2024/03/03 09:08:44;;;;;;;2.70;1.70;;;14.10;68.40;;;;;;5036019;28;20022;-68
2024/03/03 09:11:12;;;;;;;3.05;2.15;;;14.10;68.10;;;;;;5023341;28;20022;-68
2024/03/03 09:13:38;;;;;;;3.97;1.88;;;14.20;68.00;;;;;;5026768;28;20503;-68
2024/03/03 09:16:04;;;;;;;4.32;2.38;;;14.20;67.70;;;;;;5029569;28;20030;-68
2024/03/03 09:18:30;;;;;;;2.55;1.85;;;14.20;67.70;;;;;;5028296;28;20488;-62
2024/03/03 09:20:55;;;;;;;5.55;2.10;;;14.20;67.70;;;;;;5031703;28;20281;-62
2024/03/03 09:23:21;;;;;;;2.42;1.63;;;14.10;67.80;;;;;;5029098;28;20504;-62
2024/03/03 09:25:47;;;;;;;3.13;1.60;;;14.10;67.80;;;;;;5032287;28;20094;-62
2024/03/03 09:28:13;;;;;;;6.63;2.47;;;14.20;67.80;;;;;;5026763;28;20032;-62
2024/03/03 09:30:39;;;;;;;6.70;2.85;;;14.30;67.80;;;;;;5054142;28;20034;-62
2024/03/03 09:33:04;;;;;;;2.90;2.00;;;14.40;67.50;;;;;;5026353;28;20480;-62
2024/03/03 09:35:30;;;;;;;3.28;2.30;;;14.60;67.30;;;;;;5034777;28;20030;-62
2024/03/03 09:37:56;;;;;;;2.90;1.95;;;14.70;67.10;;;;;;5028308;28;20033;-68
2024/03/03 09:40:22;;;;;;;4.63;2.70;;;14.80;67.00;;;;;;5026154;28;20112;-68
2024/03/03 09:42:49;;;;;;;1.73;1.33;;;15.00;66.90;;;;;;5029011;28;20037;-68
2024/03/03 09:45:19;;;;;;;4.03;1.95;;;15.10;66.50;;;;;;5030772;28;20052;-68
2024/03/03 09:47:46;;;;;;;4.78;2.40;;;15.30;66.30;;;;;;5026424;28;20022;-67
2024/03/03 09:50:13;;;;;;;4.38;2.28;;;15.30;66.10;;;;;;5025019;28;20037;-66
2024/03/03 09:52:42;;;;;;;3.58;2.13;;;15.30;66.00;;;;;;5024390;28;20060;-68
2024/03/03 09:55:11;;;;;;;4.65;2.13;;;15.30;66.20;;;;;;5027412;28;20655;-67
2024/03/03 09:57:39;;;;;;;3.38;1.88;;;15.30;66.30;;;;;;5028048;28;20053;-67
2024/03/03 10:00:06;;;;;;;2.97;1.83;;;15.20;66.40;;;;;;5031952;28;20022;-67
2024/03/03 10:02:35;;;;;;;3.05;1.83;;;15.20;66.40;;;;;;5026521;28;20033;-67
2024/03/03 10:05:04;;;;;;;4.35;2.28;;;15.20;66.50;;;;;;5021660;28;20577;-68
2024/03/03 10:07:40;;;;;;;4.28;2.53;;;15.20;66.50;;;;;;5015493;28;20029;-69
2024/03/03 10:10:08;;;;;;;4.70;2.53;;;15.30;66.40;;;;;;5033935;28;20564;-69
2024/03/03 10:12:34;;;;;;;5.95;2.30;;;15.30;66.10;;;;;;5016967;28;20034;-67
2024/03/03 10:15:01;;;;;;;5.93;2.80;;;15.40;66.20;;;;;;5023328;28;20033;-68
2024/03/03 10:17:27;;;;;;;5.25;2.92;;;15.50;66.20;;;;;;5011163;28;20105;-69
2024/03/03 10:20:08;;;;;;;4.45;2.83;;;15.60;66.00;;;;;;5026261;28;20125;-69
2024/03/03 10:22:35;;;;;;;6.05;2.55;;;15.70;65.70;;;;;;5018416;28;21204;-69
2024/03/03 10:25:12;;;;;;;4.15;2.50;;;15.80;65.10;;;;;;5026153;28;20052;-69
2024/03/03 10:27:42;;;;;;;3.55;2.17;;;16.00;65.00;;;;;;5034550;28;20103;-70
2024/03/03 10:30:09;;;;;;;4.55;2.70;;;16.00;64.80;;;;;;5033219;28;20187;-69
2024/03/03 10:32:42;;;;;;;5.50;3.13;;;16.10;64.70;;;;;;5019279;28;20424;-68
2024/03/03 10:35:10;;;;;;;3.13;2.47;;;16.20;64.70;;;;;;5027041;28;20052;-68
2024/03/03 10:37:45;;;;;;;5.75;2.88;;;16.40;64.30;;;;;;5033738;28;20432;-68
2024/03/03 10:40:12;;;;;;;5.38;2.22;;;16.60;63.60;;;;;;5032266;28;20021;-69
2024/03/03 10:42:38;;;;;;;4.18;1.95;;;16.80;63.10;;;;;;5032198;28;20030;-68
2024/03/03 10:45:06;;;;;;;3.60;2.15;;;17.00;63.10;;;;;;5027258;28;20469;-68
2024/03/03 10:47:32;;;;;;;3.50;2.05;;;17.30;62.80;;;;;;5029825;28;20048;-68
2024/03/03 10:49:57;;;;;;;3.53;1.67;;;17.60;62.40;;;;;;5026435;28;20022;-69
2024/03/03 10:52:25;;;;;;;4.80;2.60;;;17.90;61.90;;;;;;5022221;28;20069;-69
2024/03/03 10:54:52;;;;;;;3.50;1.80;;;18.20;61.20;;;;;;5035597;28;20032;-69
2024/03/03 10:57:19;;;;;;;3.58;2.10;;;18.50;60.80;;;;;;5019728;28;20037;-69
2024/03/03 10:59:46;;;;;;;4.28;2.13;;;18.80;60.30;;;;;;5029122;28;20480;-68
2024/03/03 11:02:16;;;;;;;4.10;2.00;;;19.10;59.70;;;;;;5033934;28;20409;-65
2024/03/03 11:04:42;;;;;;;5.57;1.95;;;19.20;59.60;;;;;;5028936;28;20094;-65
2024/03/03 11:07:09;;;;;;;3.95;1.95;;;19.30;59.00;;;;;;5027827;28;20352;-64
2024/03/03 11:09:35;;;;;;;3.53;1.75;;;19.40;58.60;;;;;;5023972;28;20083;-67
2024/03/03 11:12:05;;;;;;;3.67;1.52;;;19.60;58.40;;;;;;5061673;28;20041;-68
2024/03/03 11:14:53;;;;;;;4.05;1.60;;;19.80;58.30;;;;;;5034588;28;20070;-66
2024/03/03 11:17:20;;;;;;;2.22;1.35;;;20.00;57.40;;;;;;5028314;28;20541;-60
2024/03/03 11:19:47;;;;;;;3.35;1.85;;;20.10;57.20;;;;;;5026828;28;20022;-65
2024/03/03 11:22:18;;;;;;;3.78;1.58;;;20.10;57.10;;;;;;5025213;28;20464;-66
2024/03/03 11:24:52;;;;;;;4.88;1.67;;;20.10;57.20;;;;;;5034705;28;20053;-65
2024/03/03 11:27:22;;;;;;;2.90;1.52;;;20.00;57.10;;;;;;5034807;28;20025;-65
2024/03/03 11:29:48;;;;;;;1.98;1.55;;;19.90;57.30;;;;;;5022311;28;20052;-65
2024/03/03 11:32:15;;;;;;;2.58;2.00;;;19.90;57.10;;;;;;5022856;28;20049;-66
2024/03/03 11:34:44;;;;;;;4.13;2.10;;;19.90;56.80;;;;;;5056361;28;20112;-65
2024/03/03 11:37:11;;;;;;;2.40;1.58;;;20.00;56.10;;;;;;5026449;28;20063;-66
2024/03/03 11:39:48;;;;;;;4.80;1.83;;;20.10;56.10;;;;;;5026634;28;20036;-66
2024/03/03 11:42:22;;;;;;;3.05;1.67;;;20.20;56.00;;;;;;5039243;28;20060;-65
2024/03/03 11:44:50;;;;;;;2.00;1.50;;;20.40;55.80;;;;;;5033668;28;20048;-65
2024/03/03 11:47:16;;;;;;;2.15;1.50;;;20.60;55.20;;;;;;5036483;28;20025;-64
2024/03/03 11:49:43;;;;;;;3.42;2.03;;;20.80;55.00;;;;;;5031673;28;20075;-66
2024/03/03 11:52:09;;;;;;;2.60;1.65;;;20.90;54.70;;;;;;5022463;28;20653;-65
2024/03/03 11:54:39;;;;;;;5.88;1.95;;;21.10;54.50;;;;;;5036222;28;20038;-66
2024/03/03 11:57:09;;;;;;;2.88;1.20;;;21.30;54.40;;;;;;5036568;28;20028;-66
2024/03/03 11:59:43;;;;;;;2.25;1.48;;;21.40;54.10;;;;;;5026740;28;20079;-66
2024/03/03 12:02:16;;;;;;;3.30;1.73;;;21.60;53.70;;;;;;5029098;28;20122;-65
2024/03/03 12:04:46;;;;;;;2.03;1.35;;;21.70;53.20;;;;;;5025982;28;20036;-65
2024/03/03 12:07:16;;;;;;;2.80;1.65;;;21.80;52.60;;;;;;5029449;28;20025;-66
2024/03/03 12:09:46;;;;;;;2.47;1.70;;;21.80;51.80;;;;;;5029052;28;20041;-65
2024/03/03 12:12:12;;;;;;;2.97;1.75;;;21.90;52.00;;;;;;5037647;28;20079;-65
2024/03/03 12:14:39;;;;;;;5.07;2.20;;;21.90;51.50;;;;;;5024820;28;20602;-66
2024/03/03 12:17:08;;;;;;;2.85;1.83;;;21.90;50.70;;;;;;5031982;28;20440;-65
2024/03/03 12:19:37;;;;;;;3.55;2.00;;;21.90;51.20;;;;;;5020257;28;20079;-65
2024/03/03 12:22:04;;;;;;;3.63;2.25;;;21.80;51.30;;;;;;5030978;28;20037;-66
2024/03/03 12:24:30;;;;;;;3.22;1.77;;;21.80;51.60;;;;;;5023946;28;20392;-66
2024/03/03 12:26:56;;;;;;;3.78;1.83;;;21.80;51.70;;;;;;5032271;28;20033;-66
2024/03/03 12:29:22;;;;;;;3.33;1.98;;;22.00;51.60;;;;;;5035253;28;20049;-66
2024/03/03 12:31:48;;;;;;;2.17;1.80;;;22.20;51.50;;;;;;5019647;28;20414;-66
2024/03/03 12:34:17;;;;;;;3.35;1.55;;;22.40;51.10;;;;;;5027281;28;20033;-66
2024/03/03 12:36:43;;;;;;;4.47;1.40;;;22.40;50.80;;;;;;5027390;28;20037;-66
2024/03/03 12:39:10;;;;;;;2.60;1.73;;;22.50;50.70;;;;;;5021014;28;20481;-66
2024/03/03 12:41:37;;;;;;;4.82;2.05;;;22.50;50.60;;;;;;5028082;28;20930;-66
2024/03/03 12:44:03;;;;;;;2.65;1.85;;;22.40;50.70;;;;;;5029508;28;20030;-66
2024/03/03 12:46:34;;;;;;;3.83;2.33;;;22.30;50.70;;;;;;5024965;28;20079;-66